sensor_id;sensor_type;location;lat;lon;timestamp;P1;durP1;ratioP1;P2;durP2;ratioP2
51732;SDS011;39139;53.144;6.244;2023-06-10T00:01:53;8.10;;;5.32;;
51732;SDS011;39139;53.144;6.244;2023-06-10T00:04:24;9.00;;;4.63;;
51732;SDS011;39139;53.144;6.244;2023-06-10T00:06:51;7.28;;;4.80;;
51732;SDS011;39139;53.144;6.244;2023-06-10T00:09:16;8.45;;;5.45;;
51732;SDS011;39139;53.144;6.244;2023-06-10T00:11:43;7.00;;;5.05;;
51732;SDS011;39139;53.144;6.244;2023-06-10T00:14:09;10.57;;;5.47;;
51732;SDS011;39139;53.144;6.244;2023-06-10T00:16:35;7.03;;;5.15;;
51732;SDS011;39139;53.144;6.244;2023-06-10T00:19:01;8.18;;;5.22;;
51732;SDS011;39139;53.144;6.244;2023-06-10T00:21:28;7.43;;;5.65;;
51732;SDS011;39139;53.144;6.244;2023-06-10T00:24:08;9.65;;;5.82;;
51732;SDS011;39139;53.144;6.244;2023-06-10T00:26:40;7.85;;;5.65;;
51732;SDS011;39139;53.144;6.244;2023-06-10T00:31:33;8.50;;;5.45;;
51732;SDS011;39139;53.144;6.244;2023-06-10T00:33:59;7.88;;;5.50;;
51732;SDS011;39139;53.144;6.244;2023-06-10T00:36:25;9.82;;;5.55;;
51732;SDS011;39139;53.144;6.244;2023-06-10T00:38:51;9.38;;;5.35;;
51732;SDS011;39139;53.144;6.244;2023-06-10T00:41:17;8.85;;;5.35;;
51732;SDS011;39139;53.144;6.244;2023-06-10T00:43:43;10.98;;;6.28;;
51732;SDS011;39139;53.144;6.244;2023-06-10T00:46:09;7.70;;;5.63;;
51732;SDS011;39139;53.144;6.244;2023-06-10T00:48:36;15.35;;;6.43;;
51732;SDS011;39139;53.144;6.244;2023-06-10T00:51:03;9.20;;;6.78;;
51732;SDS011;39139;53.144;6.244;2023-06-10T00:53:30;8.02;;;5.57;;
51732;SDS011;39139;53.144;6.244;2023-06-10T00:55:57;12.57;;;6.85;;
51732;SDS011;39139;53.144;6.244;2023-06-10T00:58:24;8.98;;;6.60;;
51732;SDS011;39139;53.144;6.244;2023-06-10T01:00:51;11.70;;;5.93;;
51732;SDS011;39139;53.144;6.244;2023-06-10T01:03:16;9.55;;;6.13;;
51732;SDS011;39139;53.144;6.244;2023-06-10T01:05:43;7.32;;;5.55;;
51732;SDS011;39139;53.144;6.244;2023-06-10T01:08:25;10.32;;;5.93;;
51732;SDS011;39139;53.144;6.244;2023-06-10T01:10:59;6.43;;;5.82;;
51732;SDS011;39139;53.144;6.244;2023-06-10T01:13:27;7.63;;;5.65;;
51732;SDS011;39139;53.144;6.244;2023-06-10T01:15:57;7.60;;;5.60;;
51732;SDS011;39139;53.144;6.244;2023-06-10T01:18:23;12.18;;;6.55;;
51732;SDS011;39139;53.144;6.244;2023-06-10T01:20:56;11.20;;;5.90;;
51732;SDS011;39139;53.144;6.244;2023-06-10T01:23:22;11.82;;;5.80;;
51732;SDS011;39139;53.144;6.244;2023-06-10T01:26:07;9.80;;;6.60;;
51732;SDS011;39139;53.144;6.244;2023-06-10T01:28:40;9.25;;;6.13;;
51732;SDS011;39139;53.144;6.244;2023-06-10T01:33:47;8.63;;;6.03;;
51732;SDS011;39139;53.144;6.244;2023-06-10T01:36:16;10.23;;;6.25;;
51732;SDS011;39139;53.144;6.244;2023-06-10T01:38:43;11.90;;;6.85;;
51732;SDS011;39139;53.144;6.244;2023-06-10T01:41:11;10.48;;;6.55;;
51732;SDS011;39139;53.144;6.244;2023-06-10T01:43:40;8.73;;;6.00;;
51732;SDS011;39139;53.144;6.244;2023-06-10T01:46:07;9.70;;;6.75;;
51732;SDS011;39139;53.144;6.244;2023-06-10T01:48:33;9.85;;;6.88;;
51732;SDS011;39139;53.144;6.244;2023-06-10T01:50:58;10.82;;;6.90;;
51732;SDS011;39139;53.144;6.244;2023-06-10T01:53:24;12.00;;;7.40;;
51732;SDS011;39139;53.144;6.244;2023-06-10T01:55:50;9.32;;;6.30;;
51732;SDS011;39139;53.144;6.244;2023-06-10T01:58:15;11.13;;;7.57;;
51732;SDS011;39139;53.144;6.244;2023-06-10T02:00:41;12.38;;;7.43;;
51732;SDS011;39139;53.144;6.244;2023-06-10T02:03:07;12.82;;;6.43;;
51732;SDS011;39139;53.144;6.244;2023-06-10T02:05:32;8.18;;;7.20;;
51732;SDS011;39139;53.144;6.244;2023-06-10T02:07:58;12.82;;;7.05;;
51732;SDS011;39139;53.144;6.244;2023-06-10T02:10:24;11.77;;;7.68;;
51732;SDS011;39139;53.144;6.244;2023-06-10T02:12:50;10.43;;;7.97;;
51732;SDS011;39139;53.144;6.244;2023-06-10T02:15:15;7.65;;;6.22;;
51732;SDS011;39139;53.144;6.244;2023-06-10T02:17:41;11.32;;;8.00;;
51732;SDS011;39139;53.144;6.244;2023-06-10T02:20:07;11.70;;;7.40;;
51732;SDS011;39139;53.144;6.244;2023-06-10T02:22:36;14.00;;;8.05;;
51732;SDS011;39139;53.144;6.244;2023-06-10T02:25:02;11.50;;;7.38;;
51732;SDS011;39139;53.144;6.244;2023-06-10T02:27:28;11.10;;;7.43;;
51732;SDS011;39139;53.144;6.244;2023-06-10T02:29:55;11.65;;;6.93;;
51732;SDS011;39139;53.144;6.244;2023-06-10T02:32:21;10.57;;;7.07;;
51732;SDS011;39139;53.144;6.244;2023-06-10T02:34:47;13.90;;;6.97;;
51732;SDS011;39139;53.144;6.244;2023-06-10T02:37:14;9.32;;;7.25;;
51732;SDS011;39139;53.144;6.244;2023-06-10T02:39:40;8.57;;;7.43;;
51732;SDS011;39139;53.144;6.244;2023-06-10T02:42:06;10.02;;;7.00;;
51732;SDS011;39139;53.144;6.244;2023-06-10T02:44:32;12.35;;;5.70;;
51732;SDS011;39139;53.144;6.244;2023-06-10T02:46:58;7.95;;;5.72;;
51732;SDS011;39139;53.144;6.244;2023-06-10T02:49:23;8.75;;;5.60;;
51732;SDS011;39139;53.144;6.244;2023-06-10T02:51:50;6.88;;;5.57;;
51732;SDS011;39139;53.144;6.244;2023-06-10T02:54:18;9.13;;;5.43;;
51732;SDS011;39139;53.144;6.244;2023-06-10T02:56:44;8.20;;;5.63;;
51732;SDS011;39139;53.144;6.244;2023-06-10T02:59:10;8.13;;;5.70;;
51732;SDS011;39139;53.144;6.244;2023-06-10T03:01:36;9.18;;;5.88;;
51732;SDS011;39139;53.144;6.244;2023-06-10T03:04:04;7.63;;;4.85;;
51732;SDS011;39139;53.144;6.244;2023-06-10T03:06:30;9.82;;;6.15;;
51732;SDS011;39139;53.144;6.244;2023-06-10T03:09:02;9.05;;;5.63;;
51732;SDS011;39139;53.144;6.244;2023-06-10T03:11:29;8.35;;;5.65;;
51732;SDS011;39139;53.144;6.244;2023-06-10T03:13:56;13.70;;;5.95;;
51732;SDS011;39139;53.144;6.244;2023-06-10T03:16:22;7.32;;;5.25;;
51732;SDS011;39139;53.144;6.244;2023-06-10T03:18:50;10.73;;;5.72;;
51732;SDS011;39139;53.144;6.244;2023-06-10T03:21:16;11.05;;;5.47;;
51732;SDS011;39139;53.144;6.244;2023-06-10T03:23:41;9.10;;;4.97;;
51732;SDS011;39139;53.144;6.244;2023-06-10T03:26:07;7.35;;;5.18;;
51732;SDS011;39139;53.144;6.244;2023-06-10T03:28:35;8.88;;;5.75;;
51732;SDS011;39139;53.144;6.244;2023-06-10T03:31:00;8.38;;;5.13;;
51732;SDS011;39139;53.144;6.244;2023-06-10T03:33:26;7.28;;;5.40;;
51732;SDS011;39139;53.144;6.244;2023-06-10T03:35:51;10.23;;;5.55;;
51732;SDS011;39139;53.144;6.244;2023-06-10T03:38:17;8.68;;;5.53;;
51732;SDS011;39139;53.144;6.244;2023-06-10T03:40:43;8.68;;;5.55;;
51732;SDS011;39139;53.144;6.244;2023-06-10T03:43:08;13.75;;;6.07;;
51732;SDS011;39139;53.144;6.244;2023-06-10T03:45:34;7.65;;;5.22;;
51732;SDS011;39139;53.144;6.244;2023-06-10T03:48:00;10.82;;;5.35;;
51732;SDS011;39139;53.144;6.244;2023-06-10T03:50:28;7.82;;;4.82;;
51732;SDS011;39139;53.144;6.244;2023-06-10T03:52:54;7.38;;;5.10;;
51732;SDS011;39139;53.144;6.244;2023-06-10T03:55:20;7.68;;;5.60;;
51732;SDS011;39139;53.144;6.244;2023-06-10T03:57:47;13.63;;;5.57;;
51732;SDS011;39139;53.144;6.244;2023-06-10T04:00:14;10.77;;;5.63;;
51732;SDS011;39139;53.144;6.244;2023-06-10T04:02:40;10.35;;;5.75;;
51732;SDS011;39139;53.144;6.244;2023-06-10T04:05:14;16.10;;;5.95;;
51732;SDS011;39139;53.144;6.244;2023-06-10T04:07:41;7.70;;;5.35;;
51732;SDS011;39139;53.144;6.244;2023-06-10T04:10:09;11.88;;;6.05;;
51732;SDS011;39139;53.144;6.244;2023-06-10T04:12:36;10.65;;;5.57;;
51732;SDS011;39139;53.144;6.244;2023-06-10T04:15:05;9.32;;;6.35;;
51732;SDS011;39139;53.144;6.244;2023-06-10T04:19:57;13.48;;;5.15;;
51732;SDS011;39139;53.144;6.244;2023-06-10T04:22:23;12.00;;;5.32;;
51732;SDS011;39139;53.144;6.244;2023-06-10T04:24:49;11.20;;;5.60;;
51732;SDS011;39139;53.144;6.244;2023-06-10T04:27:14;11.52;;;6.82;;
51732;SDS011;39139;53.144;6.244;2023-06-10T04:29:40;10.95;;;6.15;;
51732;SDS011;39139;53.144;6.244;2023-06-10T04:32:06;10.57;;;6.25;;
51732;SDS011;39139;53.144;6.244;2023-06-10T04:34:32;11.57;;;5.60;;
51732;SDS011;39139;53.144;6.244;2023-06-10T04:36:58;11.05;;;6.18;;
51732;SDS011;39139;53.144;6.244;2023-06-10T04:39:24;14.90;;;6.70;;
51732;SDS011;39139;53.144;6.244;2023-06-10T04:41:50;9.38;;;6.03;;
51732;SDS011;39139;53.144;6.244;2023-06-10T04:44:16;10.80;;;5.70;;
51732;SDS011;39139;53.144;6.244;2023-06-10T04:46:41;9.13;;;5.60;;
51732;SDS011;39139;53.144;6.244;2023-06-10T04:49:07;13.88;;;5.93;;
51732;SDS011;39139;53.144;6.244;2023-06-10T04:51:33;8.20;;;5.50;;
51732;SDS011;39139;53.144;6.244;2023-06-10T04:53:59;13.95;;;6.57;;
51732;SDS011;39139;53.144;6.244;2023-06-10T04:58:55;11.35;;;5.82;;
51732;SDS011;39139;53.144;6.244;2023-06-10T05:01:21;10.65;;;6.38;;
51732;SDS011;39139;53.144;6.244;2023-06-10T05:03:47;13.07;;;6.13;;
51732;SDS011;39139;53.144;6.244;2023-06-10T05:06:12;12.73;;;6.38;;
51732;SDS011;39139;53.144;6.244;2023-06-10T05:08:38;9.38;;;5.35;;
51732;SDS011;39139;53.144;6.244;2023-06-10T05:11:03;11.20;;;6.10;;
51732;SDS011;39139;53.144;6.244;2023-06-10T05:13:29;12.63;;;5.60;;
51732;SDS011;39139;53.144;6.244;2023-06-10T05:15:54;17.60;;;6.95;;
51732;SDS011;39139;53.144;6.244;2023-06-10T05:18:20;11.25;;;6.00;;
51732;SDS011;39139;53.144;6.244;2023-06-10T05:20:46;8.82;;;5.85;;
51732;SDS011;39139;53.144;6.244;2023-06-10T05:23:12;12.75;;;5.95;;
51732;SDS011;39139;53.144;6.244;2023-06-10T05:25:37;13.15;;;5.95;;
51732;SDS011;39139;53.144;6.244;2023-06-10T05:28:03;13.43;;;6.00;;
51732;SDS011;39139;53.144;6.244;2023-06-10T05:30:29;13.95;;;7.00;;
51732;SDS011;39139;53.144;6.244;2023-06-10T05:32:54;12.10;;;5.47;;
51732;SDS011;39139;53.144;6.244;2023-06-10T05:35:21;11.50;;;5.60;;
51732;SDS011;39139;53.144;6.244;2023-06-10T05:37:47;14.27;;;6.30;;
51732;SDS011;39139;53.144;6.244;2023-06-10T05:40:13;12.65;;;6.95;;
51732;SDS011;39139;53.144;6.244;2023-06-10T05:42:38;10.52;;;6.55;;
51732;SDS011;39139;53.144;6.244;2023-06-10T05:45:05;12.55;;;7.00;;
51732;SDS011;39139;53.144;6.244;2023-06-10T05:47:31;9.85;;;6.00;;
51732;SDS011;39139;53.144;6.244;2023-06-10T05:49:57;12.40;;;7.03;;
51732;SDS011;39139;53.144;6.244;2023-06-10T05:52:23;10.40;;;6.45;;
51732;SDS011;39139;53.144;6.244;2023-06-10T05:54:49;12.52;;;5.93;;
51732;SDS011;39139;53.144;6.244;2023-06-10T05:57:15;10.68;;;6.20;;
51732;SDS011;39139;53.144;6.244;2023-06-10T05:59:40;10.32;;;6.07;;
51732;SDS011;39139;53.144;6.244;2023-06-10T06:02:06;9.05;;;6.10;;
51732;SDS011;39139;53.144;6.244;2023-06-10T06:04:32;12.32;;;6.95;;
51732;SDS011;39139;53.144;6.244;2023-06-10T06:06:57;10.55;;;6.15;;
51732;SDS011;39139;53.144;6.244;2023-06-10T06:09:23;12.57;;;7.00;;
51732;SDS011;39139;53.144;6.244;2023-06-10T06:11:49;10.13;;;6.40;;
51732;SDS011;39139;53.144;6.244;2023-06-10T06:14:14;10.95;;;5.60;;
51732;SDS011;39139;53.144;6.244;2023-06-10T06:16:40;9.40;;;5.88;;
51732;SDS011;39139;53.144;6.244;2023-06-10T06:19:05;9.75;;;6.10;;
51732;SDS011;39139;53.144;6.244;2023-06-10T06:21:31;9.82;;;5.88;;
51732;SDS011;39139;53.144;6.244;2023-06-10T06:23:57;11.10;;;6.10;;
51732;SDS011;39139;53.144;6.244;2023-06-10T06:26:24;10.50;;;6.70;;
51732;SDS011;39139;53.144;6.244;2023-06-10T06:28:50;7.22;;;5.13;;
51732;SDS011;39139;53.144;6.244;2023-06-10T06:31:17;10.88;;;6.63;;
51732;SDS011;39139;53.144;6.244;2023-06-10T06:33:42;12.45;;;6.13;;
51732;SDS011;39139;53.144;6.244;2023-06-10T06:36:08;10.13;;;6.32;;
51732;SDS011;39139;53.144;6.244;2023-06-10T06:38:34;11.20;;;6.43;;
51732;SDS011;39139;53.144;6.244;2023-06-10T06:40:59;10.93;;;5.90;;
51732;SDS011;39139;53.144;6.244;2023-06-10T06:43:28;6.90;;;4.93;;
51732;SDS011;39139;53.144;6.244;2023-06-10T06:45:55;11.43;;;5.93;;
51732;SDS011;39139;53.144;6.244;2023-06-10T06:48:22;9.68;;;5.82;;
51732;SDS011;39139;53.144;6.244;2023-06-10T06:50:48;8.75;;;5.50;;
51732;SDS011;39139;53.144;6.244;2023-06-10T06:53:13;11.48;;;6.10;;
51732;SDS011;39139;53.144;6.244;2023-06-10T06:55:39;13.98;;;6.30;;
51732;SDS011;39139;53.144;6.244;2023-06-10T06:58:04;12.93;;;5.63;;
51732;SDS011;39139;53.144;6.244;2023-06-10T07:00:30;10.27;;;5.40;;
51732;SDS011;39139;53.144;6.244;2023-06-10T07:02:56;9.80;;;5.35;;
51732;SDS011;39139;53.144;6.244;2023-06-10T07:05:22;8.50;;;4.85;;
51732;SDS011;39139;53.144;6.244;2023-06-10T07:07:50;10.40;;;5.55;;
51732;SDS011;39139;53.144;6.244;2023-06-10T07:10:19;11.82;;;5.28;;
51732;SDS011;39139;53.144;6.244;2023-06-10T07:12:47;10.27;;;5.43;;
51732;SDS011;39139;53.144;6.244;2023-06-10T07:15:13;9.88;;;6.13;;
51732;SDS011;39139;53.144;6.244;2023-06-10T07:17:38;8.52;;;4.97;;
51732;SDS011;39139;53.144;6.244;2023-06-10T07:20:04;8.35;;;5.30;;
51732;SDS011;39139;53.144;6.244;2023-06-10T07:22:30;8.15;;;6.38;;
51732;SDS011;39139;53.144;6.244;2023-06-10T07:24:56;10.98;;;4.88;;
51732;SDS011;39139;53.144;6.244;2023-06-10T07:27:22;10.93;;;5.60;;
51732;SDS011;39139;53.144;6.244;2023-06-10T07:29:48;7.47;;;4.78;;
51732;SDS011;39139;53.144;6.244;2023-06-10T07:32:13;8.57;;;4.28;;
51732;SDS011;39139;53.144;6.244;2023-06-10T07:34:39;10.02;;;5.57;;
51732;SDS011;39139;53.144;6.244;2023-06-10T07:37:05;9.48;;;5.85;;
51732;SDS011;39139;53.144;6.244;2023-06-10T07:39:30;7.68;;;5.18;;
51732;SDS011;39139;53.144;6.244;2023-06-10T07:41:56;9.10;;;4.95;;
51732;SDS011;39139;53.144;6.244;2023-06-10T07:44:22;9.00;;;4.45;;
51732;SDS011;39139;53.144;6.244;2023-06-10T07:46:48;6.53;;;4.65;;
51732;SDS011;39139;53.144;6.244;2023-06-10T07:49:14;8.55;;;4.63;;
51732;SDS011;39139;53.144;6.244;2023-06-10T07:51:40;8.68;;;4.75;;
51732;SDS011;39139;53.144;6.244;2023-06-10T07:54:06;7.20;;;3.97;;
51732;SDS011;39139;53.144;6.244;2023-06-10T07:56:32;7.45;;;4.80;;
51732;SDS011;39139;53.144;6.244;2023-06-10T07:58:58;12.18;;;5.40;;
51732;SDS011;39139;53.144;6.244;2023-06-10T08:01:24;7.32;;;4.82;;
51732;SDS011;39139;53.144;6.244;2023-06-10T08:03:50;11.38;;;4.43;;
51732;SDS011;39139;53.144;6.244;2023-06-10T08:06:16;7.15;;;4.57;;
51732;SDS011;39139;53.144;6.244;2023-06-10T08:08:42;6.18;;;5.05;;
51732;SDS011;39139;53.144;6.244;2023-06-10T08:11:12;10.88;;;4.70;;
51732;SDS011;39139;53.144;6.244;2023-06-10T08:16:05;12.98;;;5.72;;
51732;SDS011;39139;53.144;6.244;2023-06-10T08:18:30;7.88;;;4.22;;
51732;SDS011;39139;53.144;6.244;2023-06-10T08:20:56;7.38;;;4.05;;
51732;SDS011;39139;53.144;6.244;2023-06-10T08:23:22;6.55;;;4.22;;
51732;SDS011;39139;53.144;6.244;2023-06-10T08:25:48;7.25;;;3.88;;
51732;SDS011;39139;53.144;6.244;2023-06-10T08:28:14;7.05;;;4.07;;
51732;SDS011;39139;53.144;6.244;2023-06-10T08:30:40;5.05;;;3.58;;
51732;SDS011;39139;53.144;6.244;2023-06-10T08:33:06;6.13;;;3.83;;
51732;SDS011;39139;53.144;6.244;2023-06-10T08:35:32;4.15;;;3.75;;
51732;SDS011;39139;53.144;6.244;2023-06-10T08:38:01;5.80;;;4.47;;
51732;SDS011;39139;53.144;6.244;2023-06-10T08:40:28;7.22;;;4.20;;
51732;SDS011;39139;53.144;6.244;2023-06-10T08:45:31;7.80;;;3.50;;
51732;SDS011;39139;53.144;6.244;2023-06-10T08:48:02;10.35;;;4.35;;
51732;SDS011;39139;53.144;6.244;2023-06-10T08:50:33;8.10;;;4.18;;
51732;SDS011;39139;53.144;6.244;2023-06-10T08:53:01;4.20;;;3.80;;
51732;SDS011;39139;53.144;6.244;2023-06-10T08:55:33;4.43;;;3.60;;
51732;SDS011;39139;53.144;6.244;2023-06-10T08:58:01;5.40;;;4.07;;
51732;SDS011;39139;53.144;6.244;2023-06-10T09:00:28;6.72;;;3.83;;
51732;SDS011;39139;53.144;6.244;2023-06-10T09:02:55;4.10;;;3.53;;
51732;SDS011;39139;53.144;6.244;2023-06-10T09:05:22;3.03;;;2.80;;
51732;SDS011;39139;53.144;6.244;2023-06-10T09:07:48;5.32;;;3.03;;
51732;SDS011;39139;53.144;6.244;2023-06-10T09:10:15;3.85;;;3.53;;
51732;SDS011;39139;53.144;6.244;2023-06-10T09:12:41;4.18;;;3.75;;
51732;SDS011;39139;53.144;6.244;2023-06-10T09:15:08;7.07;;;3.80;;
51732;SDS011;39139;53.144;6.244;2023-06-10T09:17:35;3.83;;;3.13;;
51732;SDS011;39139;53.144;6.244;2023-06-10T09:20:03;5.55;;;3.22;;
51732;SDS011;39139;53.144;6.244;2023-06-10T09:22:30;8.43;;;3.70;;
51732;SDS011;39139;53.144;6.244;2023-06-10T09:25:05;4.80;;;3.45;;
51732;SDS011;39139;53.144;6.244;2023-06-10T09:27:45;3.85;;;3.05;;
51732;SDS011;39139;53.144;6.244;2023-06-10T09:30:25;4.85;;;2.90;;
51732;SDS011;39139;53.144;6.244;2023-06-10T09:32:56;5.55;;;3.33;;
51732;SDS011;39139;53.144;6.244;2023-06-10T09:35:26;5.60;;;3.75;;
51732;SDS011;39139;53.144;6.244;2023-06-10T09:37:56;2.90;;;2.70;;
51732;SDS011;39139;53.144;6.244;2023-06-10T09:40:23;6.43;;;3.40;;
51732;SDS011;39139;53.144;6.244;2023-06-10T09:42:54;4.00;;;3.40;;
51732;SDS011;39139;53.144;6.244;2023-06-10T09:45:22;5.65;;;3.28;;
51732;SDS011;39139;53.144;6.244;2023-06-10T09:47:52;4.13;;;3.72;;
51732;SDS011;39139;53.144;6.244;2023-06-10T09:50:19;3.40;;;3.10;;
51732;SDS011;39139;53.144;6.244;2023-06-10T09:52:46;3.40;;;2.70;;
51732;SDS011;39139;53.144;6.244;2023-06-10T09:55:15;3.72;;;3.10;;
51732;SDS011;39139;53.144;6.244;2023-06-10T09:57:42;4.60;;;3.65;;
51732;SDS011;39139;53.144;6.244;2023-06-10T10:00:13;4.88;;;3.47;;
51732;SDS011;39139;53.144;6.244;2023-06-10T10:02:49;7.07;;;3.38;;
51732;SDS011;39139;53.144;6.244;2023-06-10T10:05:19;7.57;;;3.20;;
51732;SDS011;39139;53.144;6.244;2023-06-10T10:07:46;3.95;;;2.58;;
51732;SDS011;39139;53.144;6.244;2023-06-10T10:10:14;5.20;;;2.92;;
51732;SDS011;39139;53.144;6.244;2023-06-10T10:12:42;7.00;;;3.70;;
51732;SDS011;39139;53.144;6.244;2023-06-10T10:15:10;4.45;;;3.13;;
51732;SDS011;39139;53.144;6.244;2023-06-10T10:17:38;5.50;;;3.60;;
51732;SDS011;39139;53.144;6.244;2023-06-10T10:20:08;5.50;;;2.80;;
51732;SDS011;39139;53.144;6.244;2023-06-10T10:22:38;8.60;;;3.10;;
51732;SDS011;39139;53.144;6.244;2023-06-10T10:25:10;4.70;;;2.65;;
51732;SDS011;39139;53.144;6.244;2023-06-10T10:27:48;7.28;;;3.40;;
51732;SDS011;39139;53.144;6.244;2023-06-10T10:30:20;4.97;;;2.70;;
51732;SDS011;39139;53.144;6.244;2023-06-10T10:35:34;2.97;;;2.58;;
51732;SDS011;39139;53.144;6.244;2023-06-10T10:38:03;6.68;;;2.60;;
51732;SDS011;39139;53.144;6.244;2023-06-10T10:40:30;6.55;;;3.47;;
51732;SDS011;39139;53.144;6.244;2023-06-10T10:42:58;4.35;;;2.97;;
51732;SDS011;39139;53.144;6.244;2023-06-10T10:45:27;5.90;;;3.25;;
51732;SDS011;39139;53.144;6.244;2023-06-10T10:47:54;6.10;;;3.05;;
51732;SDS011;39139;53.144;6.244;2023-06-10T10:50:23;5.95;;;3.08;;
51732;SDS011;39139;53.144;6.244;2023-06-10T10:55:24;3.97;;;2.85;;
51732;SDS011;39139;53.144;6.244;2023-06-10T10:57:58;3.83;;;3.00;;
51732;SDS011;39139;53.144;6.244;2023-06-10T11:03:04;7.38;;;3.13;;
51732;SDS011;39139;53.144;6.244;2023-06-10T11:05:38;6.88;;;2.88;;
51732;SDS011;39139;53.144;6.244;2023-06-10T11:08:07;2.85;;;2.22;;
51732;SDS011;39139;53.144;6.244;2023-06-10T11:10:37;4.22;;;2.70;;
51732;SDS011;39139;53.144;6.244;2023-06-10T11:13:14;3.15;;;2.67;;
51732;SDS011;39139;53.144;6.244;2023-06-10T11:15:45;3.70;;;2.15;;
51732;SDS011;39139;53.144;6.244;2023-06-10T11:28:39;4.38;;;2.80;;
51732;SDS011;39139;53.144;6.244;2023-06-10T11:31:05;5.97;;;2.58;;
51732;SDS011;39139;53.144;6.244;2023-06-10T11:33:31;3.13;;;2.53;;
51732;SDS011;39139;53.144;6.244;2023-06-10T11:35:57;2.55;;;2.13;;
51732;SDS011;39139;53.144;6.244;2023-06-10T11:40:53;5.45;;;2.97;;
51732;SDS011;39139;53.144;6.244;2023-06-10T11:43:19;2.67;;;2.45;;
51732;SDS011;39139;53.144;6.244;2023-06-10T11:45:45;6.50;;;2.88;;
51732;SDS011;39139;53.144;6.244;2023-06-10T11:48:12;2.78;;;2.28;;
51732;SDS011;39139;53.144;6.244;2023-06-10T11:50:38;4.60;;;3.05;;
51732;SDS011;39139;53.144;6.244;2023-06-10T11:53:08;6.50;;;2.75;;
51732;SDS011;39139;53.144;6.244;2023-06-10T11:55:47;5.75;;;3.45;;
51732;SDS011;39139;53.144;6.244;2023-06-10T11:58:19;5.07;;;2.83;;
51732;SDS011;39139;53.144;6.244;2023-06-10T12:00:53;4.45;;;3.42;;
51732;SDS011;39139;53.144;6.244;2023-06-10T12:03:23;5.32;;;2.90;;
51732;SDS011;39139;53.144;6.244;2023-06-10T12:08:24;5.20;;;3.55;;
51732;SDS011;39139;53.144;6.244;2023-06-10T12:10:50;5.25;;;3.33;;
51732;SDS011;39139;53.144;6.244;2023-06-10T12:13:17;5.85;;;3.35;;
51732;SDS011;39139;53.144;6.244;2023-06-10T12:15:43;3.75;;;3.28;;
51732;SDS011;39139;53.144;6.244;2023-06-10T12:18:16;4.82;;;3.42;;
51732;SDS011;39139;53.144;6.244;2023-06-10T12:20:48;4.82;;;3.22;;
51732;SDS011;39139;53.144;6.244;2023-06-10T12:23:16;6.68;;;3.58;;
51732;SDS011;39139;53.144;6.244;2023-06-10T12:25:50;9.50;;;2.92;;
51732;SDS011;39139;53.144;6.244;2023-06-10T12:28:16;4.25;;;3.17;;
51732;SDS011;39139;53.144;6.244;2023-06-10T12:30:46;3.70;;;3.05;;
51732;SDS011;39139;53.144;6.244;2023-06-10T12:33:16;7.82;;;3.08;;
51732;SDS011;39139;53.144;6.244;2023-06-10T12:35:52;6.30;;;3.20;;
51732;SDS011;39139;53.144;6.244;2023-06-10T12:38:23;4.75;;;2.85;;
51732;SDS011;39139;53.144;6.244;2023-06-10T12:40:50;6.50;;;3.10;;
51732;SDS011;39139;53.144;6.244;2023-06-10T12:43:22;2.95;;;2.65;;
51732;SDS011;39139;53.144;6.244;2023-06-10T12:45:48;7.45;;;2.67;;
51732;SDS011;39139;53.144;6.244;2023-06-10T12:48:21;6.50;;;2.70;;
51732;SDS011;39139;53.144;6.244;2023-06-10T12:50:52;4.75;;;2.97;;
51732;SDS011;39139;53.144;6.244;2023-06-10T12:53:19;3.40;;;2.92;;
51732;SDS011;39139;53.144;6.244;2023-06-10T12:55:46;4.45;;;3.25;;
51732;SDS011;39139;53.144;6.244;2023-06-10T12:58:12;4.43;;;3.30;;
51732;SDS011;39139;53.144;6.244;2023-06-10T13:00:38;7.38;;;3.30;;
51732;SDS011;39139;53.144;6.244;2023-06-10T13:03:05;2.70;;;2.50;;
51732;SDS011;39139;53.144;6.244;2023-06-10T13:05:31;3.20;;;2.53;;
51732;SDS011;39139;53.144;6.244;2023-06-10T13:07:58;4.30;;;2.95;;
51732;SDS011;39139;53.144;6.244;2023-06-10T13:10:25;6.93;;;3.72;;
51732;SDS011;39139;53.144;6.244;2023-06-10T13:12:51;6.43;;;3.20;;
51732;SDS011;39139;53.144;6.244;2023-06-10T13:15:17;3.90;;;2.80;;
51732;SDS011;39139;53.144;6.244;2023-06-10T13:17:43;6.85;;;3.30;;
51732;SDS011;39139;53.144;6.244;2023-06-10T13:20:16;6.32;;;3.60;;
51732;SDS011;39139;53.144;6.244;2023-06-10T13:22:42;6.32;;;3.60;;
51732;SDS011;39139;53.144;6.244;2023-06-10T13:25:08;6.85;;;3.33;;
51732;SDS011;39139;53.144;6.244;2023-06-10T13:27:35;8.35;;;4.15;;
51732;SDS011;39139;53.144;6.244;2023-06-10T13:30:04;4.60;;;3.28;;
51732;SDS011;39139;53.144;6.244;2023-06-10T13:32:34;5.22;;;3.72;;
51732;SDS011;39139;53.144;6.244;2023-06-10T13:35:00;6.13;;;3.38;;
51732;SDS011;39139;53.144;6.244;2023-06-10T13:37:26;4.20;;;2.65;;
51732;SDS011;39139;53.144;6.244;2023-06-10T13:39:52;7.03;;;3.75;;
51732;SDS011;39139;53.144;6.244;2023-06-10T13:42:18;6.43;;;3.80;;
51732;SDS011;39139;53.144;6.244;2023-06-10T13:44:44;6.50;;;2.83;;
51732;SDS011;39139;53.144;6.244;2023-06-10T13:47:10;5.32;;;3.28;;
51732;SDS011;39139;53.144;6.244;2023-06-10T13:49:36;7.82;;;4.13;;
51732;SDS011;39139;53.144;6.244;2023-06-10T13:52:02;6.20;;;3.58;;
51732;SDS011;39139;53.144;6.244;2023-06-10T13:54:28;4.10;;;3.47;;
51732;SDS011;39139;53.144;6.244;2023-06-10T13:56:54;4.30;;;3.10;;
51732;SDS011;39139;53.144;6.244;2023-06-10T13:59:20;4.47;;;3.22;;
51732;SDS011;39139;53.144;6.244;2023-06-10T14:01:46;5.75;;;3.17;;
51732;SDS011;39139;53.144;6.244;2023-06-10T14:04:12;4.68;;;2.92;;
51732;SDS011;39139;53.144;6.244;2023-06-10T14:06:38;7.85;;;3.17;;
51732;SDS011;39139;53.144;6.244;2023-06-10T14:09:04;6.22;;;2.95;;
51732;SDS011;39139;53.144;6.244;2023-06-10T14:11:30;4.05;;;3.60;;
51732;SDS011;39139;53.144;6.244;2023-06-10T14:13:57;5.05;;;2.90;;
51732;SDS011;39139;53.144;6.244;2023-06-10T14:16:24;5.18;;;3.53;;
51732;SDS011;39139;53.144;6.244;2023-06-10T14:18:49;5.50;;;3.40;;
51732;SDS011;39139;53.144;6.244;2023-06-10T14:23:44;4.22;;;2.90;;
51732;SDS011;39139;53.144;6.244;2023-06-10T14:26:10;5.32;;;3.70;;
51732;SDS011;39139;53.144;6.244;2023-06-10T14:28:36;9.35;;;3.83;;
51732;SDS011;39139;53.144;6.244;2023-06-10T14:31:02;3.58;;;3.28;;
51732;SDS011;39139;53.144;6.244;2023-06-10T14:33:27;5.93;;;3.80;;
51732;SDS011;39139;53.144;6.244;2023-06-10T14:35:53;5.57;;;2.83;;
51732;SDS011;39139;53.144;6.244;2023-06-10T14:38:19;7.07;;;2.85;;
51732;SDS011;39139;53.144;6.244;2023-06-10T14:40:45;8.15;;;3.08;;
51732;SDS011;39139;53.144;6.244;2023-06-10T14:43:10;6.05;;;3.00;;
51732;SDS011;39139;53.144;6.244;2023-06-10T14:45:36;6.22;;;2.95;;
51732;SDS011;39139;53.144;6.244;2023-06-10T14:48:03;3.92;;;2.72;;
51732;SDS011;39139;53.144;6.244;2023-06-10T14:50:30;5.63;;;3.05;;
51732;SDS011;39139;53.144;6.244;2023-06-10T14:52:57;9.15;;;3.40;;
51732;SDS011;39139;53.144;6.244;2023-06-10T14:55:26;4.32;;;2.40;;
51732;SDS011;39139;53.144;6.244;2023-06-10T14:57:51;3.85;;;2.00;;
51732;SDS011;39139;53.144;6.244;2023-06-10T15:00:17;2.38;;;2.00;;
51732;SDS011;39139;53.144;6.244;2023-06-10T15:02:48;3.60;;;2.40;;
51732;SDS011;39139;53.144;6.244;2023-06-10T15:05:14;4.72;;;2.53;;
51732;SDS011;39139;53.144;6.244;2023-06-10T15:07:41;2.88;;;2.47;;
51732;SDS011;39139;53.144;6.244;2023-06-10T15:10:07;3.42;;;2.08;;
51732;SDS011;39139;53.144;6.244;2023-06-10T15:12:33;4.65;;;2.10;;
51732;SDS011;39139;53.144;6.244;2023-06-10T15:14:59;2.83;;;2.55;;
51732;SDS011;39139;53.144;6.244;2023-06-10T15:17:25;3.88;;;2.35;;
51732;SDS011;39139;53.144;6.244;2023-06-10T15:19:51;2.72;;;1.83;;
51732;SDS011;39139;53.144;6.244;2023-06-10T15:22:17;4.22;;;2.83;;
51732;SDS011;39139;53.144;6.244;2023-06-10T15:24:42;3.45;;;2.22;;